createdAt,value
2022-09-21T00:01:35.210Z,10.60
2022-09-21T00:04:41.186Z,11.40
2022-09-21T00:07:47.367Z,10.90
2022-09-21T00:10:54.197Z,10.70
2022-09-21T00:14:04.688Z,10.50
2022-09-21T00:17:10.975Z,9.70
2022-09-21T00:23:21.898Z,9.70
2022-09-21T00:26:29.605Z,9.90
2022-09-21T00:29:35.638Z,9.00
2022-09-21T00:32:41.684Z,10.90
2022-09-21T00:35:47.862Z,9.60
2022-09-21T00:38:56.638Z,9.20
2022-09-21T00:42:02.841Z,11.60
2022-09-21T00:48:14.183Z,10.10
2022-09-21T00:51:20.482Z,11.90
2022-09-21T01:00:40.459Z,9.30
2022-09-21T01:03:47.899Z,9.90
2022-09-21T01:06:54.109Z,8.30
2022-09-21T01:25:11.985Z,7.70
2022-09-21T01:28:30.454Z,11.10
2022-09-21T01:31:41.636Z,9.20
2022-09-21T01:34:54.363Z,7.40
2022-09-21T01:38:02.872Z,7.80
2022-09-21T01:41:12.345Z,8.10
2022-09-21T01:44:22.081Z,8.80
2022-09-21T01:47:31.721Z,8.50
2022-09-21T01:50:43.154Z,9.80
2022-09-21T01:53:54.105Z,8.60
2022-09-21T01:57:04.088Z,11.10
2022-09-21T02:00:11.766Z,10.20
2022-09-21T02:03:22.713Z,11.10
2022-09-21T02:06:30.235Z,10.50
2022-09-21T02:09:37.050Z,9.40
2022-09-21T02:12:43.271Z,10.20
2022-09-21T02:19:13.310Z,11.50
2022-09-21T02:22:29.363Z,12.10
2022-09-21T02:28:51.357Z,10.70
2022-09-21T02:32:05.495Z,11.50
2022-09-21T02:35:19.958Z,13.10
2022-09-21T02:38:34.663Z,13.50
2022-09-21T02:41:50.605Z,11.90
2022-09-21T02:45:05.917Z,13.80
2022-09-21T02:48:16.003Z,13.50
2022-09-21T02:51:27.525Z,13.40
2022-09-21T02:54:36.006Z,16.10
2022-09-21T02:57:42.357Z,15.50
2022-09-21T03:00:48.349Z,14.00
2022-09-21T03:03:54.310Z,15.90
2022-09-21T03:07:00.469Z,14.70
2022-09-21T03:10:08.417Z,14.90
2022-09-21T03:13:14.725Z,14.50
2022-09-21T03:16:20.760Z,15.30
2022-09-21T03:19:26.954Z,15.20
2022-09-21T03:22:32.809Z,15.30
2022-09-21T03:25:38.802Z,16.30
2022-09-21T03:28:45.250Z,15.00
2022-09-21T03:31:52.698Z,14.90
2022-09-21T03:34:58.549Z,14.90
2022-09-21T03:38:04.754Z,15.10
2022-09-21T03:41:10.732Z,15.10
2022-09-21T03:44:17.893Z,14.30
2022-09-21T03:47:23.771Z,15.40
2022-09-21T03:50:31.368Z,14.20
2022-09-21T03:53:37.451Z,15.00
2022-09-21T03:56:43.342Z,14.70
2022-09-21T03:59:49.514Z,14.90
2022-09-21T04:02:55.687Z,15.10
2022-09-21T04:06:01.822Z,15.40
2022-09-21T04:09:08.146Z,15.10
2022-09-21T04:15:20.540Z,16.40
2022-09-21T04:18:26.405Z,16.70
2022-09-21T04:21:32.314Z,15.90
2022-09-21T04:24:39.695Z,16.70
2022-09-21T04:27:45.607Z,16.70
2022-09-21T04:30:53.849Z,16.60
2022-09-21T04:34:00.194Z,17.20
2022-09-21T04:37:07.019Z,17.50
2022-09-21T04:40:13.747Z,17.30
2022-09-21T04:43:22.550Z,17.00
2022-09-21T04:46:28.661Z,18.30
2022-09-21T04:49:34.556Z,18.80
2022-09-21T04:52:40.963Z,18.10
2022-09-21T04:55:47.621Z,18.00
2022-09-21T04:58:53.495Z,18.70
2022-09-21T05:01:59.337Z,18.30
2022-09-21T05:05:05.511Z,18.10
2022-09-21T05:11:18.696Z,19.10
2022-09-21T05:14:24.658Z,18.60
2022-09-21T05:17:30.674Z,19.40
2022-09-21T05:20:36.569Z,18.90
2022-09-21T05:23:42.905Z,18.70
2022-09-21T05:26:48.757Z,19.30
2022-09-21T05:29:55.757Z,18.60
2022-09-21T05:33:05.607Z,18.70
2022-09-21T05:36:25.479Z,18.50
2022-09-21T05:39:32.394Z,19.30
2022-09-21T05:42:39.137Z,19.90
2022-09-21T05:45:48.367Z,20.60
2022-09-21T05:48:59.578Z,22.80
2022-09-21T05:52:15.052Z,19.50
2022-09-21T05:55:30.989Z,19.20
2022-09-21T05:58:47.103Z,19.00
2022-09-21T06:05:11.906Z,20.50
2022-09-21T06:08:17.774Z,17.90
2022-09-21T06:11:23.903Z,18.90
2022-09-21T06:14:29.781Z,16.70
2022-09-21T06:17:36.746Z,17.90
2022-09-21T06:20:42.618Z,16.70
2022-09-21T06:23:48.502Z,18.00
2022-09-21T06:26:54.400Z,17.20
2022-09-21T06:30:00.332Z,17.80
2022-09-21T06:33:08.102Z,18.10
2022-09-21T06:36:15.654Z,23.10
2022-09-21T06:39:21.502Z,16.80
2022-09-21T06:42:28.107Z,18.80
2022-09-21T06:45:34.591Z,17.40
2022-09-21T06:48:40.518Z,15.50
2022-09-21T06:51:48.598Z,15.30
2022-09-21T06:54:54.466Z,15.70
2022-09-21T06:58:05.369Z,15.60
2022-09-21T07:01:13.223Z,14.00
2022-09-21T07:04:24.975Z,14.30
2022-09-21T07:07:32.154Z,16.10
2022-09-21T07:10:38.046Z,14.40
2022-09-21T07:13:45.577Z,14.40
2022-09-21T07:16:51.477Z,13.60
2022-09-21T07:19:57.349Z,13.20
2022-09-21T07:23:11.204Z,13.20
2022-09-21T07:26:17.106Z,15.00
2022-09-21T07:29:22.973Z,12.40
2022-09-21T07:32:28.886Z,13.20
2022-09-21T07:35:35.145Z,14.70
2022-09-21T07:41:46.703Z,13.60
2022-09-21T07:45:03.317Z,13.10
2022-09-21T07:48:10.225Z,12.80
2022-09-21T07:51:17.503Z,13.00
2022-09-21T07:54:23.365Z,14.30
2022-09-21T07:57:47.786Z,13.60
2022-09-21T08:00:53.723Z,14.60
2022-09-21T08:04:00.643Z,12.40
2022-09-21T08:07:06.565Z,12.30
2022-09-21T08:10:13.293Z,13.00
2022-09-21T08:13:19.171Z,14.10
2022-09-21T08:16:25.590Z,13.30
2022-09-21T08:19:31.702Z,13.60
2022-09-21T08:22:37.691Z,14.30
2022-09-21T08:25:44.734Z,14.10
2022-09-21T08:28:52.970Z,15.90
2022-09-21T08:31:59.362Z,18.30
2022-09-21T08:35:05.518Z,14.80
2022-09-21T08:38:11.782Z,14.80
2022-09-21T08:44:27.078Z,12.50
2022-09-21T08:47:41.582Z,13.20
2022-09-21T08:50:53.251Z,12.80
2022-09-21T08:54:05.456Z,12.60
2022-09-21T08:57:15.584Z,13.50
2022-09-21T09:00:23.242Z,13.20
2022-09-21T09:03:52.138Z,13.10
2022-09-21T09:07:11.041Z,12.10
2022-09-21T09:10:29.467Z,11.70
2022-09-21T09:13:56.989Z,12.60
2022-09-21T09:17:20.982Z,11.40
2022-09-21T09:20:33.945Z,12.80
2022-09-21T09:23:44.847Z,14.50
2022-09-21T09:26:54.385Z,11.60
2022-09-21T09:30:04.569Z,15.60
2022-09-21T09:33:18.346Z,13.70
2022-09-21T09:36:53.834Z,10.90
2022-09-21T09:39:58.356Z,10.10
2022-09-21T09:43:13.627Z,10.50
2022-09-21T09:46:29.834Z,11.90
2022-09-21T09:49:51.323Z,18.50
2022-09-21T09:53:05.142Z,13.70
2022-09-21T09:56:15.005Z,10.50
2022-09-21T09:59:30.635Z,15.90
2022-09-21T10:02:50.202Z,10.50
2022-09-21T10:05:56.809Z,10.30
2022-09-21T10:09:02.898Z,10.80
2022-09-21T10:12:27.615Z,18.40
2022-09-21T10:15:33.596Z,11.30
2022-09-21T10:18:45.204Z,10.50
2022-09-21T10:21:56.069Z,10.20
2022-09-21T10:25:06.231Z,10.30
2022-09-21T10:28:15.087Z,11.60
2022-09-21T10:31:24.222Z,13.50
2022-09-21T10:34:31.526Z,11.80
2022-09-21T10:37:41.253Z,9.50
2022-09-21T10:40:48.682Z,8.70
2022-09-21T10:43:54.947Z,9.50
2022-09-21T10:47:04.856Z,8.80
2022-09-21T10:50:26.970Z,8.50
2022-09-21T10:53:34.652Z,9.50
2022-09-21T10:56:54.827Z,12.20
2022-09-21T11:00:13.060Z,9.10
2022-09-21T11:03:43.367Z,11.50
2022-09-21T11:06:52.946Z,12.60
2022-09-21T11:10:04.885Z,7.60
2022-09-21T11:13:26.329Z,8.20
2022-09-21T11:16:38.283Z,10.40
2022-09-21T11:19:49.878Z,7.60
2022-09-21T11:23:01.950Z,12.00
2022-09-21T11:26:12.842Z,7.90
2022-09-21T11:32:59.083Z,5.30
2022-09-21T11:36:13.642Z,4.80
2022-09-21T11:39:29.894Z,4.60
2022-09-21T11:42:59.847Z,5.50
2022-09-21T11:46:20.898Z,5.50
2022-09-21T11:50:13.131Z,8.10
2022-09-21T11:53:50.065Z,7.70
2022-09-21T11:57:02.448Z,5.80
2022-09-21T12:00:18.178Z,6.00
2022-09-21T12:03:52.038Z,6.70
2022-09-21T12:07:15.350Z,5.40
2022-09-21T12:10:45.106Z,6.70
2022-09-21T12:14:02.101Z,6.50
2022-09-21T12:17:23.511Z,6.40
2022-09-21T12:20:38.986Z,11.20
2022-09-21T12:23:48.150Z,7.00
2022-09-21T12:26:57.998Z,5.30
2022-09-21T12:30:08.574Z,6.20
2022-09-21T12:33:21.956Z,6.20
2022-09-21T12:36:36.992Z,7.70
2022-09-21T12:39:53.368Z,7.50
2022-09-21T12:43:08.504Z,11.20
2022-09-21T12:46:19.897Z,7.00
2022-09-21T12:49:32.033Z,27.00
2022-09-21T12:52:38.559Z,13.50
2022-09-21T12:55:51.326Z,15.00
2022-09-21T12:59:23.102Z,6.90
2022-09-21T13:02:36.146Z,6.50
2022-09-21T13:05:56.350Z,5.60
2022-09-21T13:09:07.307Z,6.50
2022-09-21T13:12:21.745Z,6.80
2022-09-21T13:15:30.817Z,9.50
2022-09-21T13:18:39.271Z,7.30
2022-09-21T13:21:45.971Z,11.30
2022-09-21T13:25:03.395Z,6.10
2022-09-21T13:28:21.989Z,5.80
2022-09-21T13:31:44.902Z,6.40
2022-09-21T13:34:51.730Z,7.80
2022-09-21T13:38:26.952Z,6.90
2022-09-21T13:41:58.766Z,6.20
2022-09-21T13:45:00.946Z,10.90
2022-09-21T13:48:21.273Z,6.60
2022-09-21T13:51:27.954Z,6.40
2022-09-21T13:54:38.267Z,6.90
2022-09-21T13:57:49.548Z,6.30
2022-09-21T14:00:59.061Z,5.90
2022-09-21T14:04:18.137Z,8.00
2022-09-21T14:07:32.284Z,6.20
2022-09-21T14:10:40.330Z,7.60
2022-09-21T14:14:00.746Z,8.30
2022-09-21T14:17:27.425Z,6.30
2022-09-21T14:20:39.576Z,7.60
2022-09-21T14:24:21.025Z,7.80
2022-09-21T14:27:31.994Z,3.40
2022-09-21T14:30:39.186Z,3.20
2022-09-21T14:33:49.762Z,2.80
2022-09-21T14:36:58.709Z,2.70
2022-09-21T14:40:15.643Z,2.70
2022-09-21T14:43:26.694Z,2.70
2022-09-21T14:46:52.956Z,9.60
2022-09-21T14:50:25.406Z,3.50
2022-09-21T14:53:47.250Z,3.40
2022-09-21T14:57:09.962Z,2.40
2022-09-21T15:00:26.656Z,2.50
2022-09-21T15:03:53.696Z,2.30
2022-09-21T15:07:27.810Z,2.70
2022-09-21T15:10:55.633Z,3.20
2022-09-21T15:14:28.965Z,3.30
2022-09-21T15:17:34.874Z,3.50
2022-09-21T15:20:40.783Z,3.60
2022-09-21T15:23:46.634Z,3.50
2022-09-21T15:26:54.915Z,11.80
2022-09-21T15:30:02.342Z,11.90
2022-09-21T15:33:13.223Z,11.10
2022-09-21T15:36:25.525Z,45.70
2022-09-21T15:39:32.733Z,8.30
2022-09-21T15:42:50.218Z,2.80
2022-09-21T15:45:59.333Z,3.70
2022-09-21T15:49:05.462Z,5.80
2022-09-21T15:55:22.182Z,4.90
2022-09-21T15:58:37.385Z,14.20
2022-09-21T16:01:48.181Z,4.10
2022-09-21T16:04:54.890Z,3.30
2022-09-21T16:08:19.238Z,3.10
2022-09-21T16:11:37.949Z,3.70
2022-09-21T16:14:59.662Z,5.50
2022-09-21T16:18:29.191Z,4.10
2022-09-21T16:21:38.637Z,3.60
2022-09-21T16:24:50.654Z,3.80
2022-09-21T16:27:59.578Z,5.80
2022-09-21T16:31:26.170Z,7.20
2022-09-21T16:34:37.500Z,6.00
2022-09-21T16:37:43.826Z,5.80
2022-09-21T16:40:51.998Z,6.20
2022-09-21T16:44:00.669Z,7.10
2022-09-21T16:47:12.806Z,6.90
2022-09-21T16:50:19.262Z,7.10
2022-09-21T16:53:27.137Z,8.20
2022-09-21T16:56:33.614Z,9.30
2022-09-21T16:59:39.482Z,16.90
2022-09-21T17:02:45.716Z,19.10
2022-09-21T17:08:58.715Z,7.60
2022-09-21T17:12:07.029Z,6.50
2022-09-21T17:15:15.313Z,8.50
2022-09-21T17:18:21.178Z,7.10
2022-09-21T17:21:28.241Z,11.20
2022-09-21T17:24:49.902Z,5.30
2022-09-21T17:27:58.218Z,4.60
2022-09-21T17:31:07.142Z,6.10
2022-09-21T17:34:15.429Z,5.10
2022-09-21T17:37:21.965Z,6.00
2022-09-21T17:40:30.046Z,4.30
2022-09-21T17:43:43.942Z,3.60
2022-09-21T17:46:58.529Z,4.20
2022-09-21T17:50:23.204Z,5.50
2022-09-21T17:53:37.501Z,5.00
2022-09-21T17:56:48.550Z,3.50
2022-09-21T18:00:04.066Z,3.70
2022-09-21T18:03:22.203Z,3.10
2022-09-21T18:06:29.076Z,3.30
2022-09-21T18:09:37.674Z,2.70
2022-09-21T18:13:10.738Z,3.50
2022-09-21T18:16:34.134Z,3.70
2022-09-21T18:19:51.019Z,4.50
2022-09-21T18:23:06.090Z,3.70
2022-09-21T18:26:15.598Z,4.30
2022-09-21T18:29:46.534Z,3.80
2022-09-21T18:33:02.810Z,4.90
2022-09-21T18:36:22.183Z,6.20
2022-09-21T18:39:40.217Z,5.70
2022-09-21T18:42:54.202Z,7.30
2022-09-21T18:46:06.310Z,6.40
2022-09-21T18:49:18.986Z,6.40
2022-09-21T18:52:37.194Z,8.70
2022-09-21T18:55:45.211Z,8.20
2022-09-21T18:58:52.513Z,6.40
2022-09-21T19:01:59.307Z,5.90
2022-09-21T19:05:06.738Z,7.10
2022-09-21T19:08:19.321Z,7.70
2022-09-21T19:11:32.489Z,8.90
2022-09-21T19:14:52.889Z,8.30
2022-09-21T19:18:13.513Z,7.90
2022-09-21T19:21:30.626Z,7.40
2022-09-21T19:24:44.306Z,7.50
2022-09-21T19:27:59.429Z,8.20
2022-09-21T19:31:11.366Z,7.60
2022-09-21T19:34:20.095Z,7.40
2022-09-21T19:37:26.242Z,8.30
2022-09-21T19:43:47.081Z,7.20
2022-09-21T19:47:07.606Z,7.80
2022-09-21T19:50:19.874Z,8.50
2022-09-21T19:53:44.470Z,8.80
2022-09-21T19:57:09.806Z,9.30
2022-09-21T20:00:19.123Z,7.40
2022-09-21T20:03:31.745Z,8.60
2022-09-21T20:06:43.741Z,8.00
2022-09-21T20:10:06.643Z,8.20
2022-09-21T20:13:23.223Z,7.60
2022-09-21T20:16:37.778Z,8.90
2022-09-21T20:19:53.203Z,7.10
2022-09-21T20:23:00.367Z,10.20
2022-09-21T20:26:11.809Z,9.30
2022-09-21T20:29:18.770Z,9.00
2022-09-21T20:32:25.362Z,8.90
2022-09-21T20:35:33.423Z,9.70
2022-09-21T20:38:39.277Z,8.40
2022-09-21T20:41:45.208Z,8.40
2022-09-21T20:44:51.381Z,8.10
2022-09-21T20:48:13.280Z,7.40
2022-09-21T20:51:19.478Z,9.60
2022-09-21T20:54:25.959Z,9.10
2022-09-21T20:57:32.031Z,8.60
2022-09-21T21:00:38.299Z,10.80
2022-09-21T21:06:49.612Z,10.10
2022-09-21T21:09:55.519Z,9.90
2022-09-21T21:13:02.700Z,10.40
2022-09-21T21:16:12.135Z,10.40
2022-09-21T21:19:18.527Z,10.30
2022-09-21T21:22:24.418Z,10.40
2022-09-21T21:25:30.291Z,9.70
2022-09-21T21:28:36.210Z,10.30
2022-09-21T21:31:42.662Z,10.70
2022-09-21T21:34:50.520Z,11.30
2022-09-21T21:37:56.410Z,10.90
2022-09-21T21:41:02.308Z,10.60
2022-09-21T21:44:08.277Z,10.10
2022-09-21T21:47:38.877Z,12.00
2022-09-21T21:50:40.159Z,10.70
2022-09-21T21:53:46.339Z,10.60
2022-09-21T21:56:53.014Z,10.40
2022-09-21T21:59:58.857Z,11.40
2022-09-21T22:03:05.137Z,11.10
2022-09-21T22:09:18.529Z,12.40
2022-09-21T22:12:26.272Z,12.80
2022-09-21T22:15:32.173Z,11.90
2022-09-21T22:18:39.174Z,11.90
2022-09-21T22:21:51.715Z,12.00
2022-09-21T22:24:59.771Z,11.20
2022-09-21T22:28:05.830Z,11.90
2022-09-21T22:31:14.306Z,12.60
2022-09-21T22:34:21.010Z,12.40
2022-09-21T22:37:27.175Z,11.80
2022-09-21T22:43:38.130Z,11.20
2022-09-21T22:46:44.109Z,14.70
2022-09-21T22:49:49.958Z,12.30
2022-09-21T22:52:55.838Z,12.20
2022-09-21T22:56:08.095Z,11.60
2022-09-21T22:59:13.959Z,10.00
2022-09-21T23:02:20.214Z,11.70
2022-09-21T23:08:31.523Z,11.30
2022-09-21T23:11:42.094Z,12.20
2022-09-21T23:14:48.079Z,11.40
2022-09-21T23:17:54.425Z,12.20
2022-09-21T23:21:02.011Z,11.20
2022-09-21T23:24:07.953Z,11.50
2022-09-21T23:27:13.805Z,11.00
2022-09-21T23:30:19.793Z,11.40
2022-09-21T23:33:25.649Z,11.20
2022-09-21T23:36:33.199Z,10.90
2022-09-21T23:39:39.477Z,12.00
2022-09-21T23:45:49.538Z,12.30
2022-09-21T23:48:55.814Z,11.50
2022-09-21T23:55:06.345Z,11.70
2022-09-21T23:58:12.228Z,11.60
